sensor_id;sensor_type;location;lat;lon;timestamp;temperature;humidity
24085;DHT22;12268;52.110;5.548;2023-05-10T05:45:48;18.10;99.90
24085;DHT22;12268;52.110;5.548;2023-05-10T05:48:14;18.00;99.90
24085;DHT22;12268;52.110;5.548;2023-05-10T05:50:39;18.00;99.90
24085;DHT22;12268;52.110;5.548;2023-05-10T05:53:05;18.10;99.90
24085;DHT22;12268;52.110;5.548;2023-05-10T05:55:30;18.10;99.90
24085;DHT22;12268;52.110;5.548;2023-05-10T05:57:57;18.20;99.90
24085;DHT22;12268;52.110;5.548;2023-05-10T06:00:23;18.20;99.90
24085;DHT22;12268;52.110;5.548;2023-05-10T06:02:48;18.10;99.90
24085;DHT22;12268;52.110;5.548;2023-05-10T06:05:14;18.10;99.90
24085;DHT22;12268;52.110;5.548;2023-05-10T06:07:40;18.00;99.90
24085;DHT22;12268;52.110;5.548;2023-05-10T06:10:08;18.00;99.90
24085;DHT22;12268;52.110;5.548;2023-05-10T06:12:33;17.90;99.90
24085;DHT22;12268;52.110;5.548;2023-05-10T06:14:59;17.90;99.90
24085;DHT22;12268;52.110;5.548;2023-05-10T06:17:25;17.90;99.90
24085;DHT22;12268;52.110;5.548;2023-05-10T06:19:50;17.90;99.90
24085;DHT22;12268;52.110;5.548;2023-05-10T06:22:16;17.70;99.90
24085;DHT22;12268;52.110;5.548;2023-05-10T06:24:41;17.70;99.90
24085;DHT22;12268;52.110;5.548;2023-05-10T06:27:07;17.90;99.90
24085;DHT22;12268;52.110;5.548;2023-05-10T06:29:32;18.00;99.90
24085;DHT22;12268;52.110;5.548;2023-05-10T06:31:58;17.60;99.90
24085;DHT22;12268;52.110;5.548;2023-05-10T06:34:24;17.70;99.90
24085;DHT22;12268;52.110;5.548;2023-05-10T06:36:49;17.90;99.90
24085;DHT22;12268;52.110;5.548;2023-05-10T06:39:15;17.90;99.90
24085;DHT22;12268;52.110;5.548;2023-05-10T06:41:41;17.90;99.90
24085;DHT22;12268;52.110;5.548;2023-05-10T06:44:07;18.00;99.90
24085;DHT22;12268;52.110;5.548;2023-05-10T06:46:32;18.10;99.90
24085;DHT22;12268;52.110;5.548;2023-05-10T06:48:58;18.10;99.90
24085;DHT22;12268;52.110;5.548;2023-05-10T06:51:23;18.10;99.90
24085;DHT22;12268;52.110;5.548;2023-05-10T06:53:49;18.10;99.90
24085;DHT22;12268;52.110;5.548;2023-05-10T06:56:14;18.20;99.90
24085;DHT22;12268;52.110;5.548;2023-05-10T06:58:40;18.10;99.90
24085;DHT22;12268;52.110;5.548;2023-05-10T07:01:05;18.10;99.90
24085;DHT22;12268;52.110;5.548;2023-05-10T07:03:31;18.30;99.90
24085;DHT22;12268;52.110;5.548;2023-05-10T07:06:03;18.40;99.90
24085;DHT22;12268;52.110;5.548;2023-05-10T07:08:32;18.30;99.90
24085;DHT22;12268;52.110;5.548;2023-05-10T07:11:02;18.50;99.90
24085;DHT22;12268;52.110;5.548;2023-05-10T07:13:31;18.10;99.90
24085;DHT22;12268;52.110;5.548;2023-05-10T07:15:58;18.30;99.90
24085;DHT22;12268;52.110;5.548;2023-05-10T07:18:24;18.50;99.90
24085;DHT22;12268;52.110;5.548;2023-05-10T07:20:50;18.50;99.90
24085;DHT22;12268;52.110;5.548;2023-05-10T07:23:15;18.70;99.90
24085;DHT22;12268;52.110;5.548;2023-05-10T07:25:45;18.80;99.90
24085;DHT22;12268;52.110;5.548;2023-05-10T07:28:11;18.80;99.90
24085;DHT22;12268;52.110;5.548;2023-05-10T07:30:36;18.50;99.90
24085;DHT22;12268;52.110;5.548;2023-05-10T07:33:02;18.50;99.90
24085;DHT22;12268;52.110;5.548;2023-05-10T07:35:27;18.60;99.90
24085;DHT22;12268;52.110;5.548;2023-05-10T07:37:53;18.50;99.90
24085;DHT22;12268;52.110;5.548;2023-05-10T07:40:18;18.60;99.90
24085;DHT22;12268;52.110;5.548;2023-05-10T07:42:44;18.60;99.90
24085;DHT22;12268;52.110;5.548;2023-05-10T07:45:09;18.70;99.90
24085;DHT22;12268;52.110;5.548;2023-05-10T07:47:35;18.80;99.90
24085;DHT22;12268;52.110;5.548;2023-05-10T07:50:01;18.80;99.90
24085;DHT22;12268;52.110;5.548;2023-05-10T07:52:26;18.90;99.90
24085;DHT22;12268;52.110;5.548;2023-05-10T07:54:52;19.00;99.90
24085;DHT22;12268;52.110;5.548;2023-05-10T07:57:18;19.10;99.90
24085;DHT22;12268;52.110;5.548;2023-05-10T07:59:44;19.00;99.90
24085;DHT22;12268;52.110;5.548;2023-05-10T08:02:10;19.00;99.90
24085;DHT22;12268;52.110;5.548;2023-05-10T08:04:36;19.00;99.90
24085;DHT22;12268;52.110;5.548;2023-05-10T08:07:01;18.90;99.90
24085;DHT22;12268;52.110;5.548;2023-05-10T08:09:27;19.00;99.90
24085;DHT22;12268;52.110;5.548;2023-05-10T08:11:52;19.20;99.90
24085;DHT22;12268;52.110;5.548;2023-05-10T08:14:18;19.10;99.90
24085;DHT22;12268;52.110;5.548;2023-05-10T08:16:43;19.20;99.90
24085;DHT22;12268;52.110;5.548;2023-05-10T08:19:09;19.10;99.90
24085;DHT22;12268;52.110;5.548;2023-05-10T08:21:34;19.10;99.90
24085;DHT22;12268;52.110;5.548;2023-05-10T08:24:01;19.40;99.90
24085;DHT22;12268;52.110;5.548;2023-05-10T08:26:26;19.60;99.90
24085;DHT22;12268;52.110;5.548;2023-05-10T08:28:52;19.80;99.90
24085;DHT22;12268;52.110;5.548;2023-05-10T08:31:17;20.00;99.90
24085;DHT22;12268;52.110;5.548;2023-05-10T08:33:43;20.00;99.90
24085;DHT22;12268;52.110;5.548;2023-05-10T08:36:09;19.90;99.90
24085;DHT22;12268;52.110;5.548;2023-05-10T08:38:34;20.10;99.90
24085;DHT22;12268;52.110;5.548;2023-05-10T08:41:02;20.20;99.90
24085;DHT22;12268;52.110;5.548;2023-05-10T08:43:28;20.30;99.90
24085;DHT22;12268;52.110;5.548;2023-05-10T08:45:55;20.20;99.90
24085;DHT22;12268;52.110;5.548;2023-05-10T08:48:23;20.30;99.90
24085;DHT22;12268;52.110;5.548;2023-05-10T08:50:52;20.30;99.90
24085;DHT22;12268;52.110;5.548;2023-05-10T08:53:19;20.40;99.90
24085;DHT22;12268;52.110;5.548;2023-05-10T08:55:45;20.20;99.90
24085;DHT22;12268;52.110;5.548;2023-05-10T08:58:11;20.00;99.90
24085;DHT22;12268;52.110;5.548;2023-05-10T09:00:37;19.90;99.90
24085;DHT22;12268;52.110;5.548;2023-05-10T09:03:05;19.30;99.90
24085;DHT22;12268;52.110;5.548;2023-05-10T09:05:31;19.50;99.90
24085;DHT22;12268;52.110;5.548;2023-05-10T09:07:57;19.60;99.90
24085;DHT22;12268;52.110;5.548;2023-05-10T09:10:25;19.60;99.90
24085;DHT22;12268;52.110;5.548;2023-05-10T09:12:53;19.60;99.90
24085;DHT22;12268;52.110;5.548;2023-05-10T09:15:20;19.70;99.90
24085;DHT22;12268;52.110;5.548;2023-05-10T09:17:47;19.50;99.90
24085;DHT22;12268;52.110;5.548;2023-05-10T09:20:14;19.70;99.90
24085;DHT22;12268;52.110;5.548;2023-05-10T09:22:39;19.80;99.90
24085;DHT22;12268;52.110;5.548;2023-05-10T09:25:11;19.80;99.90
24085;DHT22;12268;52.110;5.548;2023-05-10T09:27:38;19.80;99.90
24085;DHT22;12268;52.110;5.548;2023-05-10T09:30:05;19.80;99.90
24085;DHT22;12268;52.110;5.548;2023-05-10T09:32:41;20.00;99.90
24085;DHT22;12268;52.110;5.548;2023-05-10T09:35:15;20.20;99.90
24085;DHT22;12268;52.110;5.548;2023-05-10T09:37:44;20.60;99.90
24085;DHT22;12268;52.110;5.548;2023-05-10T09:40:13;20.90;99.90
24085;DHT22;12268;52.110;5.548;2023-05-10T09:42:39;20.80;99.90
24085;DHT22;12268;52.110;5.548;2023-05-10T09:45:06;20.60;99.90
24085;DHT22;12268;52.110;5.548;2023-05-10T09:47:33;20.60;99.90
24085;DHT22;12268;52.110;5.548;2023-05-10T09:50:00;20.80;99.90
24085;DHT22;12268;52.110;5.548;2023-05-10T09:52:53;20.90;99.90
24085;DHT22;12268;52.110;5.548;2023-05-10T09:55:21;21.00;99.90
24085;DHT22;12268;52.110;5.548;2023-05-10T09:57:48;21.10;99.90
24085;DHT22;12268;52.110;5.548;2023-05-10T10:00:18;21.10;99.90
24085;DHT22;12268;52.110;5.548;2023-05-10T10:02:53;21.30;99.90
24085;DHT22;12268;52.110;5.548;2023-05-10T10:05:19;21.60;99.90
24085;DHT22;12268;52.110;5.548;2023-05-10T10:07:45;21.90;99.90
24085;DHT22;12268;52.110;5.548;2023-05-10T10:10:11;21.80;99.90
24085;DHT22;12268;52.110;5.548;2023-05-10T10:12:39;22.00;99.90
24085;DHT22;12268;52.110;5.548;2023-05-10T10:15:06;21.90;99.90
24085;DHT22;12268;52.110;5.548;2023-05-10T10:17:32;21.90;99.90
24085;DHT22;12268;52.110;5.548;2023-05-10T10:20:00;22.10;99.90
24085;DHT22;12268;52.110;5.548;2023-05-10T10:22:27;22.20;99.90
24085;DHT22;12268;52.110;5.548;2023-05-10T10:24:54;22.20;99.90
24085;DHT22;12268;52.110;5.548;2023-05-10T10:27:24;22.20;99.90
24085;DHT22;12268;52.110;5.548;2023-05-10T10:35:29;22.00;99.90
24085;DHT22;12268;52.110;5.548;2023-05-10T10:37:55;21.80;99.90
24085;DHT22;12268;52.110;5.548;2023-05-10T10:40:28;21.60;99.90
24085;DHT22;12268;52.110;5.548;2023-05-10T10:42:54;21.50;99.90
24085;DHT22;12268;52.110;5.548;2023-05-10T10:45:21;21.50;99.90
24085;DHT22;12268;52.110;5.548;2023-05-10T10:47:47;21.40;99.90
24085;DHT22;12268;52.110;5.548;2023-05-10T10:50:13;21.40;99.90
24085;DHT22;12268;52.110;5.548;2023-05-10T10:52:39;21.60;99.90
24085;DHT22;12268;52.110;5.548;2023-05-10T10:55:12;21.90;99.90
24085;DHT22;12268;52.110;5.548;2023-05-10T10:57:53;22.00;99.90
24085;DHT22;12268;52.110;5.548;2023-05-10T11:00:32;22.00;99.90
24085;DHT22;12268;52.110;5.548;2023-05-10T11:03:10;22.10;99.90
24085;DHT22;12268;52.110;5.548;2023-05-10T11:05:46;22.10;99.90
24085;DHT22;12268;52.110;5.548;2023-05-10T11:11:05;22.10;99.90
24085;DHT22;12268;52.110;5.548;2023-05-10T11:16:23;21.90;99.90
24085;DHT22;12268;52.110;5.548;2023-05-10T11:19:04;22.00;99.90
24085;DHT22;12268;52.110;5.548;2023-05-10T11:21:32;21.90;99.90
24085;DHT22;12268;52.110;5.548;2023-05-10T11:24:00;22.00;99.90
24085;DHT22;12268;52.110;5.548;2023-05-10T11:26:31;22.20;99.90
24085;DHT22;12268;52.110;5.548;2023-05-10T11:28:57;22.50;99.90
24085;DHT22;12268;52.110;5.548;2023-05-10T11:31:24;22.80;99.90
24085;DHT22;12268;52.110;5.548;2023-05-10T11:33:56;22.40;99.90
24085;DHT22;12268;52.110;5.548;2023-05-10T11:36:24;22.30;99.90
24085;DHT22;12268;52.110;5.548;2023-05-10T11:38:51;22.50;99.90
24085;DHT22;12268;52.110;5.548;2023-05-10T11:41:18;22.70;99.90
24085;DHT22;12268;52.110;5.548;2023-05-10T11:43:46;22.60;99.90
24085;DHT22;12268;52.110;5.548;2023-05-10T11:46:14;22.70;99.90
24085;DHT22;12268;52.110;5.548;2023-05-10T11:48:40;22.80;99.90
24085;DHT22;12268;52.110;5.548;2023-05-10T11:51:07;23.00;99.90
24085;DHT22;12268;52.110;5.548;2023-05-10T11:53:33;23.20;99.90
24085;DHT22;12268;52.110;5.548;2023-05-10T11:56:06;23.20;99.90
24085;DHT22;12268;52.110;5.548;2023-05-10T11:58:33;23.00;99.90
24085;DHT22;12268;52.110;5.548;2023-05-10T12:01:03;22.90;99.90
24085;DHT22;12268;52.110;5.548;2023-05-10T12:03:29;22.80;99.90
24085;DHT22;12268;52.110;5.548;2023-05-10T12:05:56;22.90;99.90
24085;DHT22;12268;52.110;5.548;2023-05-10T12:08:24;22.90;99.90
24085;DHT22;12268;52.110;5.548;2023-05-10T12:10:51;23.20;99.90
24085;DHT22;12268;52.110;5.548;2023-05-10T12:13:17;23.60;99.90
24085;DHT22;12268;52.110;5.548;2023-05-10T12:15:44;23.70;99.90
24085;DHT22;12268;52.110;5.548;2023-05-10T12:18:10;24.00;99.90
24085;DHT22;12268;52.110;5.548;2023-05-10T12:20:37;24.00;99.90
24085;DHT22;12268;52.110;5.548;2023-05-10T12:23:03;24.20;99.90
24085;DHT22;12268;52.110;5.548;2023-05-10T12:25:34;24.80;99.90
24085;DHT22;12268;52.110;5.548;2023-05-10T12:28:03;25.60;99.90
24085;DHT22;12268;52.110;5.548;2023-05-10T12:30:31;25.60;99.90
24085;DHT22;12268;52.110;5.548;2023-05-10T12:33:10;25.70;99.90
24085;DHT22;12268;52.110;5.548;2023-05-10T12:35:52;26.00;99.90
24085;DHT22;12268;52.110;5.548;2023-05-10T12:41:01;26.20;99.90
24085;DHT22;12268;52.110;5.548;2023-05-10T12:43:26;26.30;99.90
24085;DHT22;12268;52.110;5.548;2023-05-10T12:45:52;26.60;99.90
24085;DHT22;12268;52.110;5.548;2023-05-10T12:48:18;27.30;99.90
24085;DHT22;12268;52.110;5.548;2023-05-10T12:50:44;28.70;99.90
24085;DHT22;12268;52.110;5.548;2023-05-10T12:53:10;30.00;99.90
24085;DHT22;12268;52.110;5.548;2023-05-10T12:55:35;29.60;99.90
24085;DHT22;12268;52.110;5.548;2023-05-10T12:58:01;29.40;99.90
24085;DHT22;12268;52.110;5.548;2023-05-10T13:00:26;29.00;99.90
24085;DHT22;12268;52.110;5.548;2023-05-10T13:02:52;28.50;99.90
24085;DHT22;12268;52.110;5.548;2023-05-10T13:05:18;28.30;99.90
24085;DHT22;12268;52.110;5.548;2023-05-10T13:07:43;28.00;99.90
24085;DHT22;12268;52.110;5.548;2023-05-10T13:10:09;27.70;99.90
24085;DHT22;12268;52.110;5.548;2023-05-10T13:12:35;27.50;99.90
24085;DHT22;12268;52.110;5.548;2023-05-10T13:15:01;26.80;99.90
24085;DHT22;12268;52.110;5.548;2023-05-10T13:17:28;26.90;99.90
24085;DHT22;12268;52.110;5.548;2023-05-10T13:19:54;26.50;99.90
24085;DHT22;12268;52.110;5.548;2023-05-10T13:22:19;26.40;99.90
24085;DHT22;12268;52.110;5.548;2023-05-10T13:24:45;26.20;99.90
24085;DHT22;12268;52.110;5.548;2023-05-10T13:27:10;26.10;99.90
24085;DHT22;12268;52.110;5.548;2023-05-10T13:29:36;25.70;99.90
24085;DHT22;12268;52.110;5.548;2023-05-10T13:32:01;25.20;99.90
24085;DHT22;12268;52.110;5.548;2023-05-10T13:34:27;24.80;99.90
24085;DHT22;12268;52.110;5.548;2023-05-10T13:36:53;24.30;99.90
24085;DHT22;12268;52.110;5.548;2023-05-10T13:39:20;23.70;99.90
24085;DHT22;12268;52.110;5.548;2023-05-10T13:41:46;22.90;99.90
24085;DHT22;12268;52.110;5.548;2023-05-10T13:44:13;22.20;99.90
24085;DHT22;12268;52.110;5.548;2023-05-10T13:46:39;21.70;99.90
24085;DHT22;12268;52.110;5.548;2023-05-10T13:49:05;20.90;99.90
24085;DHT22;12268;52.110;5.548;2023-05-10T13:51:30;20.50;99.90
24085;DHT22;12268;52.110;5.548;2023-05-10T13:53:57;20.20;99.90
24085;DHT22;12268;52.110;5.548;2023-05-10T13:56:23;19.80;99.90
24085;DHT22;12268;52.110;5.548;2023-05-10T13:58:48;19.40;99.90
24085;DHT22;12268;52.110;5.548;2023-05-10T14:01:14;19.20;99.90
24085;DHT22;12268;52.110;5.548;2023-05-10T14:03:40;18.90;99.90
24085;DHT22;12268;52.110;5.548;2023-05-10T14:06:05;18.70;99.90
24085;DHT22;12268;52.110;5.548;2023-05-10T14:08:32;18.40;99.90
24085;DHT22;12268;52.110;5.548;2023-05-10T14:10:58;18.40;99.90
24085;DHT22;12268;52.110;5.548;2023-05-10T14:13:24;18.20;99.90
24085;DHT22;12268;52.110;5.548;2023-05-10T14:15:50;18.00;99.90
24085;DHT22;12268;52.110;5.548;2023-05-10T14:18:16;18.00;99.90
24085;DHT22;12268;52.110;5.548;2023-05-10T14:20:41;18.00;99.90
24085;DHT22;12268;52.110;5.548;2023-05-10T14:23:07;17.80;99.90
24085;DHT22;12268;52.110;5.548;2023-05-10T14:25:32;17.70;99.90
24085;DHT22;12268;52.110;5.548;2023-05-10T14:27:58;17.70;99.90
24085;DHT22;12268;52.110;5.548;2023-05-10T14:30:24;17.80;99.90
24085;DHT22;12268;52.110;5.548;2023-05-10T14:32:49;17.80;99.90
24085;DHT22;12268;52.110;5.548;2023-05-10T14:35:15;17.90;99.90
24085;DHT22;12268;52.110;5.548;2023-05-10T14:37:41;18.10;99.90
24085;DHT22;12268;52.110;5.548;2023-05-10T14:40:06;18.10;99.90
24085;DHT22;12268;52.110;5.548;2023-05-10T14:42:32;18.10;99.90
24085;DHT22;12268;52.110;5.548;2023-05-10T14:44:58;18.20;99.90
24085;DHT22;12268;52.110;5.548;2023-05-10T14:47:23;18.20;99.90
24085;DHT22;12268;52.110;5.548;2023-05-10T14:49:49;18.10;99.90
24085;DHT22;12268;52.110;5.548;2023-05-10T14:52:14;18.20;99.90
24085;DHT22;12268;52.110;5.548;2023-05-10T14:54:40;18.20;99.90
24085;DHT22;12268;52.110;5.548;2023-05-10T14:57:06;18.10;99.90
24085;DHT22;12268;52.110;5.548;2023-05-10T14:59:32;18.10;99.90
24085;DHT22;12268;52.110;5.548;2023-05-10T15:01:58;18.20;99.90
24085;DHT22;12268;52.110;5.548;2023-05-10T15:04:24;18.30;99.90
24085;DHT22;12268;52.110;5.548;2023-05-10T15:06:49;18.50;99.90
24085;DHT22;12268;52.110;5.548;2023-05-10T15:09:15;18.50;99.90
24085;DHT22;12268;52.110;5.548;2023-05-10T15:11:41;18.60;99.90
24085;DHT22;12268;52.110;5.548;2023-05-10T15:14:07;18.60;99.90
24085;DHT22;12268;52.110;5.548;2023-05-10T15:16:32;18.70;99.90
24085;DHT22;12268;52.110;5.548;2023-05-10T15:18:58;18.80;99.90
24085;DHT22;12268;52.110;5.548;2023-05-10T15:21:23;18.80;99.90
24085;DHT22;12268;52.110;5.548;2023-05-10T15:23:49;19.00;99.90
24085;DHT22;12268;52.110;5.548;2023-05-10T15:26:14;19.10;99.90
24085;DHT22;12268;52.110;5.548;2023-05-10T15:28:40;19.00;99.90
24085;DHT22;12268;52.110;5.548;2023-05-10T15:31:05;19.10;99.90
24085;DHT22;12268;52.110;5.548;2023-05-10T15:33:31;19.20;99.90
24085;DHT22;12268;52.110;5.548;2023-05-10T15:35:57;19.40;99.90
24085;DHT22;12268;52.110;5.548;2023-05-10T15:38:22;19.50;99.90
24085;DHT22;12268;52.110;5.548;2023-05-10T15:40:48;19.40;99.90
24085;DHT22;12268;52.110;5.548;2023-05-10T15:43:13;19.40;99.90
24085;DHT22;12268;52.110;5.548;2023-05-10T15:45:39;19.70;99.90
24085;DHT22;12268;52.110;5.548;2023-05-10T15:48:04;19.90;99.90
24085;DHT22;12268;52.110;5.548;2023-05-10T15:50:30;20.10;99.90
24085;DHT22;12268;52.110;5.548;2023-05-10T15:52:56;20.30;99.90
24085;DHT22;12268;52.110;5.548;2023-05-10T15:55:21;20.40;99.90
24085;DHT22;12268;52.110;5.548;2023-05-10T15:57:47;20.40;99.90
24085;DHT22;12268;52.110;5.548;2023-05-10T16:00:13;20.60;99.90
24085;DHT22;12268;52.110;5.548;2023-05-10T16:02:39;20.70;99.90
24085;DHT22;12268;52.110;5.548;2023-05-10T16:05:05;20.90;99.90
24085;DHT22;12268;52.110;5.548;2023-05-10T16:07:31;21.20;99.90
24085;DHT22;12268;52.110;5.548;2023-05-10T16:09:57;21.40;99.90
24085;DHT22;12268;52.110;5.548;2023-05-10T16:12:22;21.60;99.90
24085;DHT22;12268;52.110;5.548;2023-05-10T16:14:48;21.70;99.90
24085;DHT22;12268;52.110;5.548;2023-05-10T16:17:13;21.90;99.90
24085;DHT22;12268;52.110;5.548;2023-05-10T16:19:41;22.00;99.90
24085;DHT22;12268;52.110;5.548;2023-05-10T16:22:07;22.10;99.90
24085;DHT22;12268;52.110;5.548;2023-05-10T16:24:33;22.20;99.90
24085;DHT22;12268;52.110;5.548;2023-05-10T16:26:58;22.20;99.90
24085;DHT22;12268;52.110;5.548;2023-05-10T16:29:24;22.40;99.90
24085;DHT22;12268;52.110;5.548;2023-05-10T16:31:49;22.50;99.90
24085;DHT22;12268;52.110;5.548;2023-05-10T16:34:15;22.50;99.90
24085;DHT22;12268;52.110;5.548;2023-05-10T16:36:40;22.50;99.90
24085;DHT22;12268;52.110;5.548;2023-05-10T16:39:06;22.00;99.90
24085;DHT22;12268;52.110;5.548;2023-05-10T16:41:33;22.00;99.90
24085;DHT22;12268;52.110;5.548;2023-05-10T16:43:59;21.80;99.90
24085;DHT22;12268;52.110;5.548;2023-05-10T16:46:25;21.90;99.90
24085;DHT22;12268;52.110;5.548;2023-05-10T16:48:51;21.90;99.90
24085;DHT22;12268;52.110;5.548;2023-05-10T16:51:16;21.80;99.90
24085;DHT22;12268;52.110;5.548;2023-05-10T16:53:42;21.80;99.90
24085;DHT22;12268;52.110;5.548;2023-05-10T16:56:09;21.80;99.90
24085;DHT22;12268;52.110;5.548;2023-05-10T16:58:34;21.70;99.90
24085;DHT22;12268;52.110;5.548;2023-05-10T17:01:00;21.50;99.90
24085;DHT22;12268;52.110;5.548;2023-05-10T17:03:25;21.50;99.90
24085;DHT22;12268;52.110;5.548;2023-05-10T17:05:51;21.40;99.90
24085;DHT22;12268;52.110;5.548;2023-05-10T17:08:17;21.30;99.90
24085;DHT22;12268;52.110;5.548;2023-05-10T17:10:42;21.10;99.90
24085;DHT22;12268;52.110;5.548;2023-05-10T17:13:08;21.10;99.90
24085;DHT22;12268;52.110;5.548;2023-05-10T17:15:35;21.10;99.90
24085;DHT22;12268;52.110;5.548;2023-05-10T17:18:02;21.00;99.90
24085;DHT22;12268;52.110;5.548;2023-05-10T17:20:28;21.20;99.90
24085;DHT22;12268;52.110;5.548;2023-05-10T17:22:53;21.30;99.90
24085;DHT22;12268;52.110;5.548;2023-05-10T17:25:19;21.20;99.90
24085;DHT22;12268;52.110;5.548;2023-05-10T17:27:44;20.90;99.90
24085;DHT22;12268;52.110;5.548;2023-05-10T17:30:11;21.10;99.90
24085;DHT22;12268;52.110;5.548;2023-05-10T17:32:37;21.30;99.90
24085;DHT22;12268;52.110;5.548;2023-05-10T17:35:04;21.30;99.90
24085;DHT22;12268;52.110;5.548;2023-05-10T17:37:30;21.30;99.90
24085;DHT22;12268;52.110;5.548;2023-05-10T17:39:58;21.30;99.90
24085;DHT22;12268;52.110;5.548;2023-05-10T17:42:23;21.10;99.90
24085;DHT22;12268;52.110;5.548;2023-05-10T17:44:49;21.10;99.90
24085;DHT22;12268;52.110;5.548;2023-05-10T17:47:14;21.10;99.90
24085;DHT22;12268;52.110;5.548;2023-05-10T17:49:40;21.00;99.90
24085;DHT22;12268;52.110;5.548;2023-05-10T17:52:05;21.00;99.90
24085;DHT22;12268;52.110;5.548;2023-05-10T17:54:31;21.00;99.90
24085;DHT22;12268;52.110;5.548;2023-05-10T17:56:57;20.90;99.90
24085;DHT22;12268;52.110;5.548;2023-05-10T17:59:23;20.80;99.90
24085;DHT22;12268;52.110;5.548;2023-05-10T18:01:49;20.70;99.90
24085;DHT22;12268;52.110;5.548;2023-05-10T18:04:14;20.60;99.90
24085;DHT22;12268;52.110;5.548;2023-05-10T18:06:40;20.50;99.90
24085;DHT22;12268;52.110;5.548;2023-05-10T18:09:05;20.50;99.90
24085;DHT22;12268;52.110;5.548;2023-05-10T18:11:33;20.40;99.90
24085;DHT22;12268;52.110;5.548;2023-05-10T18:13:59;20.20;99.90
24085;DHT22;12268;52.110;5.548;2023-05-10T18:16:24;20.20;99.90
24085;DHT22;12268;52.110;5.548;2023-05-10T18:18:50;20.10;99.90
24085;DHT22;12268;52.110;5.548;2023-05-10T18:21:16;20.10;99.90
24085;DHT22;12268;52.110;5.548;2023-05-10T18:23:42;20.10;99.90
24085;DHT22;12268;52.110;5.548;2023-05-10T18:26:07;20.10;99.90
24085;DHT22;12268;52.110;5.548;2023-05-10T18:28:33;19.90;99.90
24085;DHT22;12268;52.110;5.548;2023-05-10T18:30:59;19.90;99.90
24085;DHT22;12268;52.110;5.548;2023-05-10T18:33:24;19.70;99.90
24085;DHT22;12268;52.110;5.548;2023-05-10T18:35:50;19.70;99.90
24085;DHT22;12268;52.110;5.548;2023-05-10T18:38:16;19.60;99.90
24085;DHT22;12268;52.110;5.548;2023-05-10T18:40:41;19.50;99.90
24085;DHT22;12268;52.110;5.548;2023-05-10T18:43:07;19.40;99.90
24085;DHT22;12268;52.110;5.548;2023-05-10T18:45:33;19.40;99.90
24085;DHT22;12268;52.110;5.548;2023-05-10T18:47:59;19.60;99.90
24085;DHT22;12268;52.110;5.548;2023-05-10T18:50:24;19.50;99.90
24085;DHT22;12268;52.110;5.548;2023-05-10T18:52:50;19.60;99.90
24085;DHT22;12268;52.110;5.548;2023-05-10T18:55:16;19.50;99.90
24085;DHT22;12268;52.110;5.548;2023-05-10T18:57:42;19.60;99.90
24085;DHT22;12268;52.110;5.548;2023-05-10T19:00:08;19.60;99.90
24085;DHT22;12268;52.110;5.548;2023-05-10T19:02:38;19.60;99.90
24085;DHT22;12268;52.110;5.548;2023-05-10T19:05:04;19.60;99.90
24085;DHT22;12268;52.110;5.548;2023-05-10T19:07:30;19.60;99.90
24085;DHT22;12268;52.110;5.548;2023-05-10T19:09:56;19.60;99.90
24085;DHT22;12268;52.110;5.548;2023-05-10T19:12:21;19.60;99.90
24085;DHT22;12268;52.110;5.548;2023-05-10T19:14:47;19.40;99.90
24085;DHT22;12268;52.110;5.548;2023-05-10T19:17:12;19.30;99.90
24085;DHT22;12268;52.110;5.548;2023-05-10T19:19:38;19.40;99.90
24085;DHT22;12268;52.110;5.548;2023-05-10T19:22:04;19.50;99.90
24085;DHT22;12268;52.110;5.548;2023-05-10T19:24:29;19.60;99.90
24085;DHT22;12268;52.110;5.548;2023-05-10T19:26:54;19.40;99.90
24085;DHT22;12268;52.110;5.548;2023-05-10T19:29:22;19.40;99.90
24085;DHT22;12268;52.110;5.548;2023-05-10T19:31:48;19.20;99.90
24085;DHT22;12268;52.110;5.548;2023-05-10T19:34:13;19.20;99.90
24085;DHT22;12268;52.110;5.548;2023-05-10T19:36:39;19.20;99.90
24085;DHT22;12268;52.110;5.548;2023-05-10T19:39:05;19.20;99.90
24085;DHT22;12268;52.110;5.548;2023-05-10T19:41:30;19.10;99.90
24085;DHT22;12268;52.110;5.548;2023-05-10T19:43:56;19.10;99.90
24085;DHT22;12268;52.110;5.548;2023-05-10T19:46:21;19.20;99.90
24085;DHT22;12268;52.110;5.548;2023-05-10T19:48:47;19.30;99.90
24085;DHT22;12268;52.110;5.548;2023-05-10T19:51:12;19.30;99.90
24085;DHT22;12268;52.110;5.548;2023-05-10T19:53:38;19.20;99.90
24085;DHT22;12268;52.110;5.548;2023-05-10T19:56:08;19.20;99.90
24085;DHT22;12268;52.110;5.548;2023-05-10T19:58:34;19.10;99.90
24085;DHT22;12268;52.110;5.548;2023-05-10T20:00:59;19.10;99.90
24085;DHT22;12268;52.110;5.548;2023-05-10T20:03:25;19.00;99.90
24085;DHT22;12268;52.110;5.548;2023-05-10T20:05:51;19.00;99.90
24085;DHT22;12268;52.110;5.548;2023-05-10T20:08:17;19.00;99.90
24085;DHT22;12268;52.110;5.548;2023-05-10T20:10:42;19.10;99.90
24085;DHT22;12268;52.110;5.548;2023-05-10T20:13:08;18.90;99.90
24085;DHT22;12268;52.110;5.548;2023-05-10T20:15:34;18.90;99.90
24085;DHT22;12268;52.110;5.548;2023-05-10T20:17:59;18.80;99.90
24085;DHT22;12268;52.110;5.548;2023-05-10T20:20:25;18.70;99.90
24085;DHT22;12268;52.110;5.548;2023-05-10T20:22:51;18.70;99.90
24085;DHT22;12268;52.110;5.548;2023-05-10T20:25:17;18.80;99.90
24085;DHT22;12268;52.110;5.548;2023-05-10T20:27:43;18.80;99.90
24085;DHT22;12268;52.110;5.548;2023-05-10T20:30:09;18.80;99.90
24085;DHT22;12268;52.110;5.548;2023-05-10T20:32:35;18.90;99.90
24085;DHT22;12268;52.110;5.548;2023-05-10T20:35:01;18.90;99.90
24085;DHT22;12268;52.110;5.548;2023-05-10T20:37:27;19.00;99.90
24085;DHT22;12268;52.110;5.548;2023-05-10T20:39:53;19.00;99.90
24085;DHT22;12268;52.110;5.548;2023-05-10T20:42:19;18.90;99.90
24085;DHT22;12268;52.110;5.548;2023-05-10T20:44:45;18.80;99.90
24085;DHT22;12268;52.110;5.548;2023-05-10T20:47:13;18.80;99.90
24085;DHT22;12268;52.110;5.548;2023-05-10T20:49:39;18.90;99.90
24085;DHT22;12268;52.110;5.548;2023-05-10T20:52:04;18.90;99.90
24085;DHT22;12268;52.110;5.548;2023-05-10T20:54:30;18.80;99.90
24085;DHT22;12268;52.110;5.548;2023-05-10T20:56:55;18.80;99.90
24085;DHT22;12268;52.110;5.548;2023-05-10T20:59:21;18.80;99.90
24085;DHT22;12268;52.110;5.548;2023-05-10T21:01:47;18.80;99.90
24085;DHT22;12268;52.110;5.548;2023-05-10T21:04:13;18.70;99.90
24085;DHT22;12268;52.110;5.548;2023-05-10T21:06:38;18.70;99.90
24085;DHT22;12268;52.110;5.548;2023-05-10T21:09:04;18.70;99.90
24085;DHT22;12268;52.110;5.548;2023-05-10T21:11:29;18.70;99.90
24085;DHT22;12268;52.110;5.548;2023-05-10T21:13:57;18.60;99.90
24085;DHT22;12268;52.110;5.548;2023-05-10T21:16:23;18.60;99.90
24085;DHT22;12268;52.110;5.548;2023-05-10T21:18:48;18.60;99.90
24085;DHT22;12268;52.110;5.548;2023-05-10T21:21:14;18.60;99.90
24085;DHT22;12268;52.110;5.548;2023-05-10T21:23:39;18.60;99.90